Maynard, IA (50655)

7:30 AM CST on January 26, 2015 (GMT -0600)
APRSWXNET Fayette IA US | Change Station
CLOSE
Current Station
Personal Weather Station
Location: Fayette, IA
Elevation: 1000 ft
Nearby Weather Stations

Elev 1000 ft 42.84 °N, 91.80 °W | Updated 37 minutes ago

Snow
Snow
22 °F
Feels Like 15 °F
N
5
Wind Variable Wind from South
Gusts 10.0 mph

Today
High -- | Low -- °F
--% Chance of Precip.
Yesterday
High -- | Low -- °F
Precip. -- in
7:28 AM 5:12 PM
Waxing Crescent, 43% visible
Pressure 29.83 in
Visibility 5.0 miles
Clouds Scattered Clouds 200 ft
Overcast 1400 ft
Windchill 15 °F
Dew Point 20 °F
Humidity 92%
Rainfall 0.00 in
Snow Depth Not available.
UV 0 out of 12
Pollen .10 out of 12
Air Quality Not available.
Flu Activity Not available.
METAR KOLZ 261315Z AUTO 17015KT 5SM BR SCT002 OVC014 M05/M06 A2983 RMK AO2

More Conditions Fewer Conditions

Pressure 29.83 in
Visibility 5.0 miles
Clouds Scattered Clouds 200 ft
Overcast 1400 ft
Windchill 15 °F
Dew Point 20 °F
Humidity 92%
Rainfall 0.00 in
Snow Depth Not available.
UV 0 out of 12
Pollen .10 out of 12
Air Quality Not available.
Flu Activity Not available.
METAR KOLZ 261315Z AUTO 17015KT 5SM BR SCT002 OVC014 M05/M06 A2983 RMK AO2

More Conditions Fewer Conditions

10-Day Weather Forecast

Almanac

Astronomy

Jan. 26, 2015 Rise Set
Actual Time
Civil Twilight
Nautical Twilight
Astronomical Twilight
Moon
Length of Visible Light
Length of Day
Tomorrow will be .
, % of the Moon is Illuminated

Today's Extremes

State Highs State Lows

Community

WunderPhotos

Upload Photos

1,790,196 photos uploaded!

WunderBlogs® & News

Nearby

Air Quality

  Air Quality AQ Index Pollutant
Not available.

Snow Depth

Station Depth Elevation

Earthquake Activity

City Distance Mag. Time & Date
Minimum magnitude displayed is 2.5.

Coastal Water Temperatures

Place Temperature

Nearby Weather Stations